createdAt,value
2018-04-07T00:00:13.809Z,8.00
2018-04-07T00:01:13.789Z,8.00
2018-04-07T00:02:13.776Z,8.00
2018-04-07T00:03:13.750Z,8.00
2018-04-07T00:04:13.729Z,8.00
2018-04-07T00:05:13.703Z,8.00
2018-04-07T00:06:13.684Z,8.00
2018-04-07T00:07:13.665Z,8.00
2018-04-07T00:08:13.652Z,8.00
2018-04-07T00:09:13.622Z,8.00
2018-04-07T00:10:13.600Z,8.00
2018-04-07T00:11:13.584Z,8.00
2018-04-07T00:12:13.562Z,8.00
2018-04-07T00:13:13.539Z,8.00
2018-04-07T00:14:13.517Z,8.00
2018-04-07T00:15:13.498Z,8.00
2018-04-07T00:16:13.480Z,8.00
2018-04-07T00:17:13.459Z,8.00
2018-04-07T00:18:13.437Z,8.00
2018-04-07T00:19:13.420Z,8.00
2018-04-07T00:20:13.403Z,8.00
2018-04-07T00:21:13.498Z,8.00
2018-04-07T00:22:13.352Z,8.00
2018-04-07T00:23:13.340Z,8.00
2018-04-07T00:24:13.327Z,8.00
2018-04-07T00:25:13.289Z,8.00
2018-04-07T00:26:13.270Z,8.00
2018-04-07T00:27:13.250Z,8.00
2018-04-07T00:28:13.228Z,8.00
2018-04-07T00:29:13.207Z,8.00
2018-04-07T00:30:13.184Z,8.00
2018-04-07T00:31:13.167Z,8.00
2018-04-07T00:32:13.146Z,8.00
2018-04-07T00:33:13.127Z,8.00
2018-04-07T00:34:13.105Z,8.00
2018-04-07T00:35:13.084Z,8.00
2018-04-07T00:36:13.061Z,8.00
2018-04-07T00:37:13.040Z,8.00
2018-04-07T00:38:13.021Z,8.00
2018-04-07T00:39:12.999Z,8.00
2018-04-07T00:40:12.978Z,8.00
2018-04-07T00:41:12.957Z,8.00
2018-04-07T00:42:12.934Z,8.00
2018-04-07T00:43:13.029Z,8.00
2018-04-07T00:44:12.898Z,8.00
2018-04-07T00:45:12.874Z,8.00
2018-04-07T00:46:12.856Z,8.00
2018-04-07T00:47:12.834Z,8.00
2018-04-07T00:48:12.815Z,8.00
2018-04-07T00:49:12.789Z,8.00
2018-04-07T00:50:12.775Z,8.00
2018-04-07T00:51:12.748Z,8.00
2018-04-07T00:52:12.726Z,8.00
2018-04-07T00:53:12.705Z,8.00
2018-04-07T00:54:12.686Z,8.00
2018-04-07T00:55:12.665Z,8.00
2018-04-07T00:56:12.645Z,8.00
2018-04-07T00:57:12.630Z,8.00
2018-04-07T00:58:12.602Z,8.00
2018-04-07T00:59:12.583Z,8.00
2018-04-07T01:00:12.562Z,8.00
2018-04-07T01:01:12.540Z,8.00
2018-04-07T01:02:12.522Z,8.00
2018-04-07T01:03:12.501Z,8.00
2018-04-07T01:04:12.481Z,8.00
2018-04-07T01:05:12.459Z,8.00
2018-04-07T01:06:12.444Z,8.00
2018-04-07T01:07:12.418Z,8.00
2018-04-07T01:08:12.396Z,8.00
2018-04-07T01:09:12.379Z,8.00
2018-04-07T01:10:12.357Z,8.00
2018-04-07T01:11:12.334Z,8.00
2018-04-07T01:12:12.313Z,8.00
2018-04-07T01:13:12.294Z,8.00
2018-04-07T01:14:12.273Z,8.00
2018-04-07T01:15:12.255Z,8.00
2018-04-07T01:16:12.304Z,8.00
2018-04-07T01:17:12.213Z,8.00
2018-04-07T01:18:12.190Z,8.00
2018-04-07T01:19:12.172Z,8.00
2018-04-07T01:20:12.152Z,8.00
2018-04-07T01:21:12.130Z,8.00
2018-04-07T01:22:12.109Z,8.00
2018-04-07T01:23:12.192Z,8.00
2018-04-07T01:24:12.073Z,8.00
2018-04-07T01:25:12.045Z,8.00
2018-04-07T01:26:12.029Z,8.00
2018-04-07T01:27:12.004Z,8.00
2018-04-07T01:28:11.985Z,8.00
2018-04-07T01:29:11.964Z,8.00
2018-04-07T01:30:11.948Z,8.00
2018-04-07T01:31:11.925Z,8.00
2018-04-07T01:32:11.904Z,8.00
2018-04-07T01:33:11.880Z,8.00
2018-04-07T01:34:11.861Z,8.00
2018-04-07T01:35:11.842Z,8.00
2018-04-07T01:36:11.822Z,8.00
2018-04-07T01:37:11.799Z,8.00
2018-04-07T01:38:11.779Z,8.00
2018-04-07T01:39:11.812Z,8.00
2018-04-07T01:40:11.738Z,8.00
2018-04-07T01:41:11.718Z,8.00
2018-04-07T01:42:11.747Z,8.00
2018-04-07T01:43:11.672Z,8.00
2018-04-07T01:44:11.657Z,8.00
2018-04-07T01:45:11.635Z,8.00
2018-04-07T01:46:11.665Z,8.00
2018-04-07T01:47:11.593Z,8.00
2018-04-07T01:48:11.569Z,8.00
2018-04-07T01:49:11.551Z,8.00
2018-04-07T01:50:11.534Z,8.00
2018-04-07T01:51:11.510Z,8.00
2018-04-07T01:52:11.486Z,8.00
2018-04-07T01:53:11.464Z,8.00
2018-04-07T01:54:11.446Z,8.00
2018-04-07T01:55:11.421Z,8.00
2018-04-07T01:56:11.401Z,8.00
2018-04-07T01:57:11.381Z,8.00
2018-04-07T01:58:11.423Z,8.00
2018-04-07T01:59:11.337Z,8.00
2018-04-07T02:00:11.318Z,8.00
2018-04-07T02:01:11.304Z,8.00
2018-04-07T02:02:11.278Z,8.00
2018-04-07T02:03:11.255Z,8.00
2018-04-07T02:04:11.234Z,8.00
2018-04-07T02:05:11.215Z,8.00
2018-04-07T02:06:11.194Z,8.00
2018-04-07T02:07:11.176Z,8.00
2018-04-07T02:08:11.158Z,8.00
2018-04-07T02:09:11.128Z,8.00
2018-04-07T02:10:11.112Z,8.00
2018-04-07T02:11:11.104Z,8.00
2018-04-07T02:12:11.066Z,8.00
2018-04-07T02:13:11.045Z,8.00
2018-04-07T02:14:11.029Z,8.00
2018-04-07T02:15:11.003Z,8.00
2018-04-07T02:16:10.986Z,8.00
2018-04-07T02:17:10.959Z,8.00
2018-04-07T02:18:10.936Z,8.00
2018-04-07T02:19:10.915Z,8.00
2018-04-07T02:20:10.904Z,8.00
2018-04-07T02:21:10.882Z,8.00
2018-04-07T02:22:10.885Z,8.00
2018-04-07T02:23:10.860Z,8.00
2018-04-07T02:24:10.811Z,8.00
2018-04-07T02:25:10.881Z,8.00
2018-04-07T02:26:10.773Z,8.00
2018-04-07T02:27:10.747Z,8.00
2018-04-07T02:28:10.726Z,8.00
2018-04-07T02:29:10.703Z,8.00
2018-04-07T02:30:10.686Z,8.00
2018-04-07T02:31:10.660Z,8.00
2018-04-07T02:32:10.641Z,8.00
2018-04-07T02:33:10.624Z,8.00
2018-04-07T02:34:10.607Z,8.00
2018-04-07T02:35:10.582Z,8.00
2018-04-07T02:36:10.574Z,8.00
2018-04-07T02:37:10.536Z,8.00
2018-04-07T02:38:10.518Z,8.00
2018-04-07T02:39:10.497Z,8.00
2018-04-07T02:40:10.474Z,8.00
2018-04-07T02:41:10.451Z,8.00
2018-04-07T02:42:10.440Z,8.00
2018-04-07T02:43:10.410Z,8.00
2018-04-07T02:44:10.390Z,8.00
2018-04-07T02:45:10.369Z,8.00
2018-04-07T02:46:10.351Z,8.00
2018-04-07T02:47:10.345Z,8.00
2018-04-07T02:48:10.304Z,8.00
2018-04-07T02:49:10.283Z,8.00
2018-04-07T02:50:10.265Z,8.00
2018-04-07T02:51:10.253Z,8.00
2018-04-07T02:52:10.223Z,8.00
2018-04-07T02:53:10.196Z,8.00
2018-04-07T02:54:10.179Z,8.00
2018-04-07T02:55:10.167Z,8.00
2018-04-07T02:56:10.137Z,8.00
2018-04-07T02:57:10.114Z,8.00
2018-04-07T02:58:10.095Z,8.00
2018-04-07T02:59:10.074Z,8.00
2018-04-07T03:00:10.116Z,8.00
2018-04-07T03:01:10.035Z,8.00
2018-04-07T03:02:10.015Z,8.00
2018-04-07T03:03:09.991Z,8.00
2018-04-07T03:04:09.969Z,8.00
2018-04-07T03:05:09.947Z,8.00
2018-04-07T03:06:09.931Z,8.00
2018-04-07T03:07:09.916Z,8.00
2018-04-07T03:08:09.880Z,8.00
2018-04-07T03:09:09.860Z,8.00
2018-04-07T03:10:09.840Z,8.00
2018-04-07T03:11:09.817Z,8.00
2018-04-07T03:12:09.808Z,8.00
2018-04-07T03:13:09.780Z,8.00
2018-04-07T03:14:09.757Z,8.00
2018-04-07T03:15:09.734Z,8.00
2018-04-07T03:16:09.711Z,8.00
2018-04-07T03:17:09.691Z,8.00
2018-04-07T03:18:09.668Z,8.00
2018-04-07T03:19:09.646Z,8.00
2018-04-07T03:20:09.626Z,8.00
2018-04-07T03:21:09.607Z,8.00
2018-04-07T03:22:09.586Z,8.00
2018-04-07T03:23:09.566Z,8.00
2018-04-07T03:24:09.541Z,8.00
2018-04-07T03:25:09.518Z,8.00
2018-04-07T03:26:09.504Z,8.00
2018-04-07T03:27:09.482Z,8.00
2018-04-07T03:28:09.455Z,8.00
2018-04-07T03:29:09.435Z,8.00
2018-04-07T03:30:09.535Z,8.00
2018-04-07T03:31:09.390Z,8.00
2018-04-07T03:32:09.369Z,8.00
2018-04-07T03:33:09.382Z,8.00
2018-04-07T03:34:09.327Z,8.00
2018-04-07T03:35:09.304Z,8.00
2018-04-07T03:36:09.287Z,8.00
2018-04-07T03:37:09.264Z,8.00
2018-04-07T03:38:09.244Z,8.00
2018-04-07T03:39:09.219Z,8.00
2018-04-07T03:40:09.198Z,8.00
2018-04-07T03:41:09.178Z,8.00
2018-04-07T03:42:09.210Z,8.00
2018-04-07T03:43:09.136Z,8.00
2018-04-07T03:44:09.113Z,8.00
2018-04-07T03:45:09.092Z,8.00
2018-04-07T03:46:09.071Z,8.00
2018-04-07T03:47:09.052Z,8.00
2018-04-07T03:48:09.031Z,8.00
2018-04-07T03:49:09.067Z,8.00
2018-04-07T03:50:08.986Z,8.00
2018-04-07T03:51:08.964Z,8.00
2018-04-07T03:52:08.943Z,8.00
2018-04-07T03:53:08.924Z,8.00
2018-04-07T03:54:08.901Z,8.00
2018-04-07T03:55:08.882Z,8.00
2018-04-07T03:56:08.862Z,8.00
2018-04-07T03:57:08.841Z,8.00
2018-04-07T03:58:08.822Z,8.00
2018-04-07T03:59:08.797Z,8.00
2018-04-07T04:00:08.777Z,8.00
2018-04-07T04:01:08.754Z,8.00
2018-04-07T04:02:08.734Z,8.00
2018-04-07T04:03:08.712Z,8.00
2018-04-07T04:04:08.691Z,8.00
2018-04-07T04:05:08.834Z,8.00
2018-04-07T04:06:08.646Z,8.00
2018-04-07T04:07:08.625Z,8.00
2018-04-07T04:08:08.626Z,8.00
2018-04-07T04:09:08.588Z,8.00
2018-04-07T04:10:08.571Z,8.00
2018-04-07T04:11:08.543Z,12.00
2018-04-07T04:12:08.523Z,8.00
2018-04-07T04:13:08.499Z,8.00
2018-04-07T04:14:08.474Z,8.00
2018-04-07T04:15:08.454Z,8.00
2018-04-07T04:16:08.440Z,8.00
2018-04-07T04:17:08.409Z,8.00
2018-04-07T04:18:08.391Z,12.00
2018-04-07T04:19:08.374Z,8.00
2018-04-07T04:20:08.349Z,8.00
2018-04-07T04:21:08.329Z,12.00
2018-04-07T04:22:08.307Z,8.00
2018-04-07T04:23:08.288Z,12.00
2018-04-07T04:24:08.270Z,12.00
2018-04-07T04:25:08.252Z,12.00
2018-04-07T04:26:08.220Z,12.00
2018-04-07T04:27:08.196Z,16.00
2018-04-07T04:28:08.177Z,16.00
2018-04-07T04:29:08.157Z,20.00
2018-04-07T04:30:08.138Z,24.00
2018-04-07T04:31:08.113Z,24.00
2018-04-07T04:32:08.093Z,28.00
2018-04-07T04:33:08.069Z,28.00
2018-04-07T04:34:08.050Z,32.00
2018-04-07T04:35:08.040Z,36.00
2018-04-07T04:36:08.007Z,44.00
2018-04-07T04:37:07.988Z,52.00
2018-04-07T04:38:07.970Z,56.00
2018-04-07T04:39:07.944Z,64.00
2018-04-07T04:40:07.921Z,80.00
2018-04-07T04:41:07.899Z,88.00
2018-04-07T04:42:07.877Z,96.00
2018-04-07T04:43:07.859Z,108.00
2018-04-07T04:44:07.855Z,120.00
2018-04-07T04:45:07.815Z,132.00
2018-04-07T04:46:07.795Z,148.00
2018-04-07T04:47:07.770Z,164.00
2018-04-07T04:48:07.751Z,184.00
2018-04-07T04:49:07.729Z,204.00
2018-04-07T04:50:07.707Z,228.00
2018-04-07T04:51:07.693Z,256.00
2018-04-07T04:52:07.664Z,288.00
2018-04-07T04:53:07.645Z,320.00
2018-04-07T04:54:07.643Z,364.00
2018-04-07T04:55:07.610Z,408.00
2018-04-07T04:56:07.582Z,456.00
2018-04-07T04:57:07.567Z,512.00
2018-04-07T04:58:07.533Z,568.00
2018-04-07T04:59:07.513Z,628.00
2018-04-07T05:00:07.499Z,692.00
2018-04-07T05:01:07.472Z,756.00
2018-04-07T05:02:07.451Z,828.00
2018-04-07T05:03:07.427Z,900.00
2018-04-07T05:04:07.408Z,972.00
2018-04-07T05:05:07.395Z,1040.00
2018-04-07T05:06:07.365Z,1104.00
2018-04-07T05:07:07.349Z,1180.00
2018-04-07T05:08:07.318Z,1244.00
2018-04-07T05:09:07.295Z,1312.00
2018-04-07T05:10:07.279Z,1384.00
2018-04-07T05:11:07.254Z,1456.00
2018-04-07T05:12:07.232Z,1528.00
2018-04-07T05:13:07.224Z,1596.00
2018-04-07T05:14:07.187Z,1668.00
2018-04-07T05:15:07.192Z,1744.00
2018-04-07T05:16:07.147Z,1820.00
2018-04-07T05:17:07.124Z,1884.00
2018-04-07T05:18:07.102Z,1960.00
2018-04-07T05:19:07.082Z,2032.00
2018-04-07T05:20:07.061Z,2100.00
2018-04-07T05:21:07.042Z,2164.00
2018-04-07T05:22:07.023Z,2244.00
2018-04-07T05:23:06.993Z,2336.00
2018-04-07T05:24:06.971Z,2416.00
2018-04-07T05:25:06.952Z,2512.00
2018-04-07T05:26:06.961Z,2628.00
2018-04-07T05:27:06.993Z,2740.00
2018-04-07T05:28:06.889Z,2848.00
2018-04-07T05:29:06.864Z,2948.00
2018-04-07T05:30:06.841Z,3048.00
2018-04-07T05:31:06.821Z,3148.00
2018-04-07T05:32:06.800Z,3268.00
2018-04-07T05:33:06.781Z,3408.00
2018-04-07T05:34:06.759Z,3556.00
2018-04-07T05:35:06.738Z,3696.00
2018-04-07T05:36:06.714Z,3824.00
2018-04-07T05:37:06.702Z,3940.00
2018-04-07T05:38:06.671Z,4036.00
2018-04-07T05:39:06.651Z,4128.00
2018-04-07T05:40:06.629Z,4220.00
2018-04-07T05:41:06.608Z,4316.00
2018-04-07T05:42:06.589Z,4400.00
2018-04-07T05:43:06.584Z,4492.00
2018-04-07T05:44:06.549Z,4628.00
2018-04-07T05:45:06.524Z,4728.00
2018-04-07T05:46:06.592Z,4796.00
2018-04-07T05:47:06.491Z,4848.00
2018-04-07T05:48:06.463Z,4888.00
2018-04-07T05:49:06.443Z,4940.00
2018-04-07T05:50:06.421Z,5032.00
2018-04-07T05:51:06.396Z,5140.00
2018-04-07T05:52:06.379Z,5224.00
2018-04-07T05:53:06.367Z,5276.00
2018-04-07T05:54:06.337Z,5344.00
2018-04-07T05:55:06.326Z,5416.00
2018-04-07T05:56:06.297Z,5464.00
2018-04-07T05:57:06.273Z,5516.00
2018-04-07T05:58:06.251Z,5616.00
2018-04-07T05:59:06.231Z,5724.00
2018-04-07T06:00:06.214Z,5836.00
2018-04-07T06:01:06.189Z,5928.00
2018-04-07T06:02:06.170Z,6096.00
2018-04-07T06:03:06.147Z,6304.00
2018-04-07T06:04:06.129Z,6604.00
2018-04-07T06:05:06.178Z,7396.00
2018-04-07T06:06:06.086Z,10732.00
2018-04-07T06:07:06.066Z,13032.00
2018-04-07T06:08:06.048Z,17920.00
2018-04-07T06:09:06.025Z,21792.00
2018-04-07T06:10:06.004Z,19232.00
2018-04-07T06:11:05.984Z,23136.00
2018-04-07T06:12:05.965Z,26144.00
2018-04-07T06:13:05.944Z,27520.00
2018-04-07T06:14:05.943Z,29440.00
2018-04-07T06:15:05.911Z,29824.00
2018-04-07T06:16:05.887Z,29760.00
2018-04-07T06:17:05.874Z,32480.00
2018-04-07T06:18:05.946Z,28032.00
2018-04-07T06:19:05.830Z,24928.00
2018-04-07T06:20:05.814Z,33376.00
2018-04-07T06:21:05.797Z,38656.00
2018-04-07T06:22:05.783Z,37088.00
2018-04-07T06:23:05.757Z,34592.00
2018-04-07T06:24:05.744Z,36896.00
2018-04-07T06:25:05.737Z,30048.00
2018-04-07T06:26:05.708Z,24352.00
2018-04-07T06:27:05.700Z,24864.00
2018-04-07T06:28:05.680Z,27360.00
2018-04-07T06:29:05.661Z,35840.00
2018-04-07T06:30:05.644Z,33408.00
2018-04-07T06:31:05.632Z,32288.00
2018-04-07T06:32:05.619Z,31712.00
2018-04-07T06:33:05.603Z,25504.00
2018-04-07T06:34:05.585Z,15424.00
2018-04-07T06:35:05.574Z,9684.00
2018-04-07T06:36:05.556Z,7868.00
2018-04-07T06:37:05.541Z,7624.00
2018-04-07T06:38:05.529Z,7592.00
2018-04-07T06:39:05.530Z,7600.00
2018-04-07T06:40:05.507Z,7616.00
2018-04-07T06:41:05.493Z,7688.00
2018-04-07T06:42:05.471Z,7704.00
2018-04-07T06:43:05.456Z,7788.00
2018-04-07T06:44:05.441Z,7872.00
2018-04-07T06:45:05.428Z,7908.00
2018-04-07T06:46:05.451Z,7944.00
2018-04-07T06:47:05.400Z,7984.00
2018-04-07T06:48:05.392Z,8004.00
2018-04-07T06:49:05.366Z,8012.00
2018-04-07T06:50:05.350Z,8032.00
2018-04-07T06:51:05.336Z,8088.00
2018-04-07T06:52:05.405Z,8140.00
2018-04-07T06:53:05.310Z,8204.00
2018-04-07T06:54:05.289Z,8216.00
2018-04-07T06:55:05.301Z,8184.00
2018-04-07T06:56:05.254Z,8232.00
2018-04-07T06:57:05.238Z,8268.00
2018-04-07T06:58:05.221Z,8280.00
2018-04-07T06:59:05.210Z,8252.00
2018-04-07T07:00:05.201Z,8308.00
2018-04-07T07:01:05.175Z,8328.00
2018-04-07T07:02:05.167Z,8332.00
2018-04-07T07:03:05.141Z,8376.00
2018-04-07T07:04:05.194Z,8404.00
2018-04-07T07:05:05.116Z,8424.00
2018-04-07T07:06:05.088Z,8440.00
2018-04-07T07:07:05.080Z,8464.00
2018-04-07T07:08:05.059Z,8516.00
2018-04-07T07:09:05.037Z,8604.00
2018-04-07T07:10:05.023Z,8732.00
2018-04-07T07:11:05.011Z,8832.00
2018-04-07T07:12:04.986Z,8948.00
2018-04-07T07:13:04.988Z,9048.00
2018-04-07T07:14:05.050Z,9212.00
2018-04-07T07:15:04.933Z,9404.00
2018-04-07T07:16:04.927Z,9624.00
2018-04-07T07:17:04.896Z,9852.00
2018-04-07T07:18:04.896Z,10108.00
2018-04-07T07:19:04.862Z,10400.00
2018-04-07T07:20:04.847Z,10712.00
2018-04-07T07:21:04.843Z,10780.00
2018-04-07T07:22:04.830Z,11224.00
2018-04-07T07:23:04.792Z,11488.00
2018-04-07T07:24:04.772Z,11956.00
2018-04-07T07:25:04.755Z,13104.00
2018-04-07T07:26:04.741Z,16148.00
2018-04-07T07:27:04.721Z,21088.00
2018-04-07T07:28:04.707Z,22752.00
2018-04-07T07:29:04.686Z,26944.00
2018-04-07T07:30:04.671Z,29984.00
2018-04-07T07:31:04.655Z,25248.00
2018-04-07T07:32:04.646Z,22720.00
2018-04-07T07:33:04.618Z,25472.00
2018-04-07T07:34:04.603Z,28064.00
2018-04-07T07:35:04.603Z,34272.00
2018-04-07T07:36:04.569Z,38880.00
2018-04-07T07:37:04.563Z,40544.00
2018-04-07T07:38:04.646Z,44256.00
2018-04-07T07:39:04.526Z,41472.00
2018-04-07T07:40:04.505Z,39072.00
2018-04-07T07:41:04.534Z,33856.00
2018-04-07T07:42:04.580Z,28352.00
2018-04-07T07:43:04.463Z,18848.00
2018-04-07T07:44:04.454Z,25056.00
2018-04-07T07:45:04.432Z,22880.00
2018-04-07T07:46:04.421Z,26432.00
2018-04-07T07:47:04.427Z,25536.00
2018-04-07T07:48:04.387Z,27520.00
2018-04-07T07:49:04.372Z,28896.00
2018-04-07T07:50:04.363Z,27520.00
2018-04-07T07:51:04.352Z,28352.00
2018-04-07T07:52:04.333Z,26112.00
2018-04-07T07:53:04.317Z,23680.00
2018-04-07T07:54:04.309Z,19648.00
2018-04-07T07:55:04.301Z,18080.00
2018-04-07T07:56:04.291Z,17440.00
2018-04-07T07:57:04.268Z,15468.00
2018-04-07T07:58:04.257Z,20928.00
2018-04-07T07:59:04.240Z,30240.00
2018-04-07T08:00:04.231Z,35936.00
2018-04-07T08:01:04.213Z,39264.00
2018-04-07T08:02:04.201Z,42368.00
2018-04-07T08:03:04.191Z,49568.00
2018-04-07T08:04:04.316Z,56448.00
2018-04-07T08:05:04.166Z,53408.00
2018-04-07T08:06:04.153Z,48000.00
2018-04-07T08:07:04.152Z,49760.00
2018-04-07T08:08:04.137Z,52480.00
2018-04-07T08:09:04.124Z,51040.00
2018-04-07T08:10:04.115Z,48416.00
2018-04-07T08:11:04.210Z,36160.00
2018-04-07T08:12:04.096Z,18272.00
2018-04-07T08:13:04.091Z,32608.00
2018-04-07T08:14:04.074Z,47424.00
2018-04-07T08:15:04.073Z,57216.00
2018-04-07T08:16:04.075Z,49088.00
2018-04-07T08:17:04.047Z,41888.00
2018-04-07T08:18:04.032Z,36064.00
2018-04-07T08:19:04.029Z,61024.00
2018-04-07T08:20:04.017Z,65952.00
2018-04-07T08:21:04.034Z,72768.00
2018-04-07T08:22:03.994Z,69664.00
2018-04-07T08:23:03.988Z,67808.00
2018-04-07T08:24:03.980Z,52992.00
2018-04-07T08:25:03.969Z,55232.00
2018-04-07T08:26:03.958Z,66240.00
2018-04-07T08:27:03.962Z,70560.00
2018-04-07T08:28:03.941Z,56032.00
2018-04-07T08:29:03.935Z,53504.00
2018-04-07T08:30:03.936Z,53056.00
2018-04-07T08:31:03.919Z,31968.00
2018-04-07T08:32:03.958Z,37184.00
2018-04-07T08:33:03.898Z,29088.00
2018-04-07T08:34:03.905Z,25856.00
2018-04-07T08:35:03.884Z,37600.00
2018-04-07T08:36:03.875Z,36736.00
2018-04-07T08:37:03.870Z,27840.00
2018-04-07T08:38:03.856Z,28160.00
2018-04-07T08:39:03.854Z,32704.00
2018-04-07T08:40:03.842Z,43648.00
2018-04-07T08:41:03.831Z,39040.00
2018-04-07T08:42:03.821Z,56160.00
2018-04-07T08:43:03.816Z,55264.00
2018-04-07T08:44:03.806Z,54560.00
2018-04-07T08:45:03.796Z,53920.00
2018-04-07T08:46:03.788Z,60928.00
2018-04-07T08:47:03.783Z,55424.00
2018-04-07T08:48:03.782Z,54912.00
2018-04-07T08:49:03.768Z,40896.00
2018-04-07T08:50:03.867Z,66496.00
2018-04-07T08:51:03.753Z,34784.00
2018-04-07T08:52:03.740Z,78912.00
2018-04-07T08:53:03.731Z,76032.00
2018-04-07T08:54:03.891Z,68800.00
2018-04-07T08:55:03.730Z,62752.00
2018-04-07T08:56:03.709Z,47616.00
2018-04-07T08:57:03.706Z,45376.00
2018-04-07T08:58:03.695Z,51232.00
2018-04-07T08:59:03.689Z,57056.00
2018-04-07T09:00:03.684Z,62080.00
2018-04-07T09:01:03.674Z,60608.00
2018-04-07T09:02:03.675Z,53888.00
2018-04-07T09:03:03.669Z,55552.00
2018-04-07T09:04:03.655Z,74336.00
2018-04-07T09:05:03.649Z,79040.00
2018-04-07T09:06:03.643Z,76768.00
2018-04-07T09:07:03.701Z,75232.00
2018-04-07T09:08:03.634Z,74176.00
2018-04-07T09:09:03.628Z,75776.00
2018-04-07T09:10:03.636Z,73600.00
2018-04-07T09:11:03.624Z,70816.00
2018-04-07T09:12:03.619Z,56736.00
2018-04-07T09:13:03.627Z,52896.00
2018-04-07T09:14:03.612Z,55520.00
2018-04-07T09:15:03.606Z,65824.00
2018-04-07T09:16:03.601Z,68576.00
2018-04-07T09:17:03.596Z,68800.00
2018-04-07T09:18:03.596Z,57888.00
2018-04-07T09:19:03.592Z,59360.00
2018-04-07T09:20:03.592Z,66752.00
2018-04-07T09:21:03.587Z,69856.00
2018-04-07T09:22:03.583Z,81408.00
2018-04-07T09:23:03.582Z,68608.00
2018-04-07T09:24:03.580Z,62752.00
2018-04-07T09:25:03.588Z,54400.00
2018-04-07T09:26:03.574Z,74048.00
2018-04-07T09:27:03.580Z,69344.00
2018-04-07T09:28:03.572Z,63552.00
2018-04-07T09:29:03.570Z,71744.00
2018-04-07T09:30:03.674Z,78080.00
2018-04-07T09:31:03.565Z,75296.00
2018-04-07T09:32:03.563Z,85056.00
2018-04-07T09:33:03.577Z,89696.00
2018-04-07T09:34:03.560Z,83744.00
2018-04-07T09:35:03.562Z,85376.00
2018-04-07T09:36:03.553Z,83520.00
2018-04-07T09:37:03.554Z,82848.00
2018-04-07T09:38:03.554Z,88160.00
2018-04-07T09:39:03.551Z,88640.00
2018-04-07T09:40:03.553Z,76096.00
2018-04-07T09:41:03.552Z,87264.00
2018-04-07T09:42:03.611Z,91296.00
2018-04-07T09:43:03.620Z,93824.00
2018-04-07T09:44:03.544Z,90624.00
2018-04-07T09:45:03.539Z,87104.00
2018-04-07T09:46:03.542Z,88704.00
2018-04-07T09:47:03.540Z,89440.00
2018-04-07T09:48:03.539Z,91584.00
2018-04-07T09:49:03.540Z,89632.00
2018-04-07T09:50:03.539Z,88032.00
2018-04-07T09:51:03.542Z,89984.00
2018-04-07T09:52:03.543Z,91552.00
2018-04-07T09:53:03.544Z,90592.00
2018-04-07T09:54:03.538Z,92352.00
2018-04-07T09:55:03.532Z,93504.00
2018-04-07T09:56:03.534Z,91744.00
2018-04-07T09:57:03.543Z,88384.00
2018-04-07T09:58:03.532Z,89024.00
2018-04-07T09:59:03.536Z,92928.00
2018-04-07T10:00:03.533Z,90976.00
2018-04-07T10:01:03.625Z,89568.00
2018-04-07T10:02:03.540Z,90144.00
2018-04-07T10:03:03.528Z,90400.00
2018-04-07T10:04:03.527Z,92544.00
2018-04-07T10:05:03.527Z,90304.00
2018-04-07T10:06:03.527Z,87488.00
2018-04-07T10:07:03.542Z,86112.00
2018-04-07T10:08:03.527Z,90752.00
2018-04-07T10:09:03.529Z,87616.00
2018-04-07T10:10:03.531Z,90688.00
2018-04-07T10:11:03.539Z,95584.00
2018-04-07T10:12:03.529Z,93824.00
2018-04-07T10:13:03.526Z,96000.00
2018-04-07T10:14:03.521Z,97888.00
2018-04-07T10:15:03.520Z,97408.00
2018-04-07T10:16:03.529Z,98592.00
2018-04-07T10:17:03.519Z,95072.00
2018-04-07T10:18:03.517Z,96800.00
2018-04-07T10:19:03.518Z,96128.00
2018-04-07T10:20:03.526Z,95968.00
2018-04-07T10:21:03.530Z,93152.00
2018-04-07T10:22:03.518Z,90368.00
2018-04-07T10:23:03.524Z,97280.00
2018-04-07T10:24:03.559Z,95072.00
2018-04-07T10:25:03.518Z,90592.00
2018-04-07T10:26:03.516Z,84704.00
2018-04-07T10:27:03.518Z,81504.00
2018-04-07T10:28:03.520Z,84448.00
2018-04-07T10:29:03.522Z,90560.00
2018-04-07T10:30:03.518Z,91168.00
2018-04-07T10:31:03.518Z,89440.00
2018-04-07T10:32:03.517Z,88000.00
2018-04-07T10:33:03.518Z,74432.00
2018-04-07T10:34:03.565Z,81184.00
2018-04-07T10:35:03.522Z,82208.00
2018-04-07T10:36:03.528Z,81376.00
2018-04-07T10:37:03.523Z,85920.00
2018-04-07T10:38:03.522Z,88128.00
2018-04-07T10:39:03.523Z,88640.00
2018-04-07T10:40:03.523Z,90752.00
2018-04-07T10:41:03.524Z,88960.00
2018-04-07T10:42:03.532Z,86048.00
2018-04-07T10:43:03.526Z,86560.00
2018-04-07T10:44:03.524Z,86720.00
2018-04-07T10:45:03.532Z,84608.00
2018-04-07T10:46:03.527Z,83424.00
2018-04-07T10:47:03.554Z,85408.00
2018-04-07T10:48:03.534Z,77568.00
2018-04-07T10:49:03.547Z,76288.00
2018-04-07T10:50:03.545Z,83232.00
2018-04-07T10:51:03.534Z,80736.00
2018-04-07T10:52:03.541Z,76512.00
2018-04-07T10:53:03.539Z,80544.00
2018-04-07T10:54:03.545Z,68384.00
2018-04-07T10:55:03.546Z,67040.00
2018-04-07T10:56:03.558Z,75328.00
2018-04-07T10:57:03.555Z,80640.00
2018-04-07T10:58:03.544Z,78560.00
2018-04-07T10:59:03.554Z,74816.00
2018-04-07T11:00:03.546Z,77952.00
2018-04-07T11:01:03.553Z,76704.00
2018-04-07T11:02:03.562Z,75552.00
2018-04-07T11:03:03.552Z,65088.00
2018-04-07T11:04:03.553Z,50336.00
2018-04-07T11:05:03.604Z,66368.00
2018-04-07T11:06:03.606Z,63168.00
2018-04-07T11:07:03.561Z,59776.00
2018-04-07T11:08:03.570Z,69856.00
2018-04-07T11:09:03.560Z,73120.00
2018-04-07T11:10:03.564Z,78176.00
2018-04-07T11:11:03.569Z,83456.00
2018-04-07T11:12:03.571Z,81088.00
2018-04-07T11:13:03.569Z,74336.00
2018-04-07T11:14:03.571Z,58048.00
2018-04-07T11:15:03.563Z,64128.00
2018-04-07T11:16:03.569Z,73088.00
2018-04-07T11:17:03.580Z,73312.00
2018-04-07T11:18:03.581Z,74080.00
2018-04-07T11:19:03.572Z,72032.00
2018-04-07T11:20:03.568Z,71136.00
2018-04-07T11:21:03.570Z,71232.00
2018-04-07T11:22:03.573Z,74560.00
2018-04-07T11:23:03.575Z,73664.00
2018-04-07T11:24:03.583Z,76320.00
2018-04-07T11:25:03.575Z,78688.00
2018-04-07T11:26:03.578Z,75808.00
2018-04-07T11:27:03.579Z,76992.00
2018-04-07T11:28:03.580Z,73440.00
2018-04-07T11:29:03.585Z,72288.00
2018-04-07T11:30:03.584Z,71904.00
2018-04-07T11:31:03.617Z,71040.00
2018-04-07T11:32:03.587Z,66880.00
2018-04-07T11:33:03.598Z,68992.00
2018-04-07T11:34:03.589Z,67520.00
2018-04-07T11:35:03.593Z,64256.00
2018-04-07T11:36:03.590Z,66656.00
2018-04-07T11:37:03.593Z,70272.00
2018-04-07T11:38:03.604Z,69504.00
2018-04-07T11:39:03.604Z,71136.00
2018-04-07T11:40:03.613Z,76000.00
2018-04-07T11:41:03.622Z,80896.00
2018-04-07T11:42:03.599Z,81568.00
2018-04-07T11:43:03.636Z,80192.00
2018-04-07T11:44:03.600Z,75168.00
2018-04-07T11:45:03.629Z,75712.00
2018-04-07T11:46:03.611Z,78464.00
2018-04-07T11:47:03.606Z,82848.00
2018-04-07T11:48:03.612Z,87648.00
2018-04-07T11:49:03.608Z,89088.00
2018-04-07T11:50:03.605Z,87552.00
2018-04-07T11:51:03.633Z,83008.00
2018-04-07T11:52:03.616Z,80672.00
2018-04-07T11:53:03.655Z,81696.00
2018-04-07T11:54:03.604Z,80928.00
2018-04-07T11:55:03.599Z,80416.00
2018-04-07T11:56:03.624Z,80672.00
2018-04-07T11:57:03.623Z,53632.00
2018-04-07T11:58:03.601Z,15492.00
2018-04-07T11:59:03.700Z,10872.00
2018-04-07T12:00:03.592Z,10104.00
2018-04-07T12:01:03.595Z,9564.00
2018-04-07T12:02:03.598Z,9148.00
2018-04-07T12:03:03.591Z,8628.00
2018-04-07T12:04:03.584Z,8356.00
2018-04-07T12:05:03.595Z,8384.00
2018-04-07T12:06:03.582Z,8240.00
2018-04-07T12:07:03.583Z,7940.00
2018-04-07T12:08:03.572Z,7836.00
2018-04-07T12:09:03.589Z,7580.00
2018-04-07T12:10:03.572Z,7288.00
2018-04-07T12:11:03.568Z,7304.00
2018-04-07T12:12:03.558Z,7276.00
2018-04-07T12:13:03.553Z,7256.00
2018-04-07T12:14:03.547Z,7344.00
2018-04-07T12:15:03.541Z,7464.00
2018-04-07T12:16:03.537Z,7724.00
2018-04-07T12:17:03.531Z,7956.00
2018-04-07T12:18:03.542Z,8168.00
2018-04-07T12:19:03.522Z,8260.00
2018-04-07T12:20:03.518Z,8284.00
2018-04-07T12:21:03.512Z,8268.00
2018-04-07T12:22:03.566Z,8280.00